createdAt,value
2017-11-25T00:01:08.781Z,6.93
2017-11-25T00:03:36.331Z,6.93
2017-11-25T00:06:04.679Z,7.13
2017-11-25T00:08:32.224Z,7.37
2017-11-25T00:10:59.806Z,6.90
2017-11-25T00:13:27.340Z,6.67
2017-11-25T00:15:56.628Z,9.17
2017-11-25T00:18:27.235Z,7.17
2017-11-25T00:20:54.806Z,7.87
2017-11-25T00:23:22.336Z,6.20
2017-11-25T00:25:54.913Z,7.27
2017-11-25T00:28:23.230Z,6.60
2017-11-25T00:30:51.572Z,10.60
2017-11-25T00:33:19.108Z,8.13
2017-11-25T00:35:47.492Z,7.90
2017-11-25T00:38:15.789Z,7.20
2017-11-25T00:40:46.098Z,8.13
2017-11-25T00:43:13.630Z,9.20
2017-11-25T00:45:42.152Z,9.10
2017-11-25T00:48:09.683Z,8.67
2017-11-25T00:50:37.264Z,8.17
2017-11-25T00:53:04.800Z,13.90
2017-11-25T00:55:33.137Z,9.30
2017-11-25T00:58:00.669Z,6.73
2017-11-25T01:00:29.933Z,7.60
2017-11-25T01:02:57.467Z,6.83
2017-11-25T01:05:25.047Z,11.50
2017-11-25T01:07:52.584Z,7.70
2017-11-25T01:10:20.168Z,10.10
2017-11-25T01:12:48.479Z,7.33
2017-11-25T01:15:16.052Z,6.63
2017-11-25T01:17:44.355Z,7.30
2017-11-25T01:20:12.563Z,7.20
2017-11-25T01:22:40.115Z,6.70
2017-11-25T01:25:08.971Z,7.03
2017-11-25T01:27:37.364Z,7.07
2017-11-25T01:30:12.729Z,7.30
2017-11-25T01:32:41.047Z,7.57
2017-11-25T01:35:08.735Z,8.23
2017-11-25T01:37:39.425Z,9.33
2017-11-25T01:40:07.816Z,7.07
2017-11-25T01:42:36.850Z,7.00
2017-11-25T01:45:06.653Z,7.20
2017-11-25T01:47:35.632Z,6.97
2017-11-25T01:50:03.216Z,8.77
2017-11-25T01:52:31.744Z,7.20
2017-11-25T01:55:01.100Z,8.20
2017-11-25T01:57:28.651Z,7.37
2017-11-25T01:59:57.780Z,11.73
2017-11-25T02:02:26.320Z,7.57
2017-11-25T02:04:55.603Z,11.60
2017-11-25T02:07:23.168Z,8.20
2017-11-25T02:09:50.744Z,10.30
2017-11-25T02:12:18.283Z,7.40
2017-11-25T02:14:46.616Z,8.63
2017-11-25T02:17:14.144Z,9.37
2017-11-25T02:19:42.479Z,10.50
2017-11-25T02:22:10.004Z,9.23
2017-11-25T02:24:37.569Z,10.57
2017-11-25T02:27:05.152Z,8.73
2017-11-25T02:29:32.716Z,9.33
2017-11-25T02:32:00.249Z,10.30
2017-11-25T02:34:27.822Z,9.80
2017-11-25T02:36:55.382Z,9.00
2017-11-25T02:39:23.485Z,11.00
2017-11-25T02:41:51.025Z,11.20
2017-11-25T02:44:18.715Z,12.60
2017-11-25T02:46:47.009Z,12.20
2017-11-25T02:49:15.532Z,10.83
2017-11-25T02:51:44.042Z,10.90
2017-11-25T02:54:11.638Z,12.90
2017-11-25T02:56:39.940Z,13.27
2017-11-25T02:59:08.273Z,12.40
2017-11-25T03:01:35.808Z,12.37
2017-11-25T03:04:03.499Z,16.20
2017-11-25T03:06:31.036Z,12.57
2017-11-25T03:08:59.409Z,13.43
2017-11-25T03:11:26.985Z,13.70
2017-11-25T03:13:54.561Z,16.43
2017-11-25T03:16:22.101Z,12.37
2017-11-25T03:18:49.713Z,16.60
2017-11-25T03:21:17.253Z,14.03
2017-11-25T03:23:44.855Z,15.07
2017-11-25T03:26:12.393Z,14.00
2017-11-25T03:28:40.785Z,15.33
2017-11-25T03:31:08.323Z,14.70
2017-11-25T03:33:36.190Z,14.83
2017-11-25T03:36:04.650Z,15.33
2017-11-25T03:38:32.248Z,16.03
2017-11-25T03:40:59.828Z,15.93
2017-11-25T03:43:28.133Z,15.17
2017-11-25T03:45:56.471Z,17.97
2017-11-25T03:48:24.016Z,20.23
2017-11-25T03:50:52.075Z,26.10
2017-11-25T03:53:20.395Z,21.93
2017-11-25T03:55:48.033Z,25.53
2017-11-25T03:58:16.348Z,18.30
2017-11-25T04:00:43.926Z,21.23
2017-11-25T04:03:11.469Z,18.03
2017-11-25T04:05:39.815Z,19.63
2017-11-25T04:08:07.360Z,11.97
2017-11-25T04:10:34.968Z,8.27
2017-11-25T04:13:02.501Z,7.07
2017-11-25T04:15:30.075Z,7.17
2017-11-25T04:17:57.609Z,6.07
2017-11-25T04:20:25.185Z,6.33
2017-11-25T04:22:52.725Z,6.20
2017-11-25T04:25:20.306Z,6.60
2017-11-25T04:27:47.837Z,6.33
2017-11-25T04:30:15.421Z,6.10
2017-11-25T04:32:43.015Z,6.57
2017-11-25T04:35:10.610Z,5.67
2017-11-25T04:37:38.138Z,5.90
2017-11-25T04:40:05.714Z,5.67
2017-11-25T04:42:33.245Z,5.57
2017-11-25T04:45:00.813Z,6.07
2017-11-25T04:47:28.345Z,6.43
2017-11-25T04:49:55.913Z,6.13
2017-11-25T04:52:24.416Z,5.57
2017-11-25T04:54:51.999Z,5.63
2017-11-25T04:57:19.574Z,5.73
2017-11-25T04:59:47.322Z,6.90
2017-11-25T05:02:14.858Z,6.30
2017-11-25T05:04:42.426Z,5.70
2017-11-25T05:07:09.954Z,6.17
2017-11-25T05:09:37.514Z,6.83
2017-11-25T05:12:05.037Z,6.10
2017-11-25T05:14:32.601Z,6.30
2017-11-25T05:17:00.132Z,6.40
2017-11-25T05:19:27.689Z,6.47
2017-11-25T05:21:55.981Z,5.83
2017-11-25T05:24:23.548Z,6.40
2017-11-25T05:26:51.859Z,5.77
2017-11-25T05:29:19.432Z,6.07
2017-11-25T05:31:46.980Z,6.43
2017-11-25T05:34:14.565Z,6.50
2017-11-25T05:36:42.125Z,6.20
2017-11-25T05:39:10.461Z,6.87
2017-11-25T05:41:38.936Z,6.53
2017-11-25T05:44:06.532Z,6.07
2017-11-25T05:46:34.068Z,5.80
2017-11-25T05:49:01.633Z,6.33
2017-11-25T05:51:31.774Z,6.37
2017-11-25T05:54:00.419Z,6.60
2017-11-25T05:56:27.944Z,6.43
2017-11-25T05:58:56.238Z,6.27
2017-11-25T06:01:23.812Z,6.53
2017-11-25T06:03:51.358Z,6.00
2017-11-25T06:06:18.937Z,6.67
2017-11-25T06:08:47.228Z,7.70
2017-11-25T06:11:15.557Z,7.10
2017-11-25T06:13:43.124Z,7.20
2017-11-25T06:16:10.692Z,6.70
2017-11-25T06:18:38.228Z,6.60
2017-11-25T06:21:05.798Z,6.37
2017-11-25T06:23:33.333Z,10.47
2017-11-25T06:26:00.902Z,8.07
2017-11-25T06:28:28.460Z,5.63
2017-11-25T06:30:56.021Z,7.70
2017-11-25T06:33:23.602Z,6.57
2017-11-25T06:35:51.733Z,5.77
2017-11-25T06:38:19.260Z,5.77
2017-11-25T06:40:46.820Z,5.73
2017-11-25T06:43:15.230Z,5.70
2017-11-25T06:45:42.803Z,6.00
2017-11-25T06:48:10.337Z,6.00
2017-11-25T06:50:37.953Z,6.17
2017-11-25T06:53:05.563Z,5.70
2017-11-25T06:55:33.125Z,5.83
2017-11-25T06:58:01.434Z,6.23
2017-11-25T07:00:29.005Z,6.03
2017-11-25T07:02:56.529Z,5.50
2017-11-25T07:05:24.804Z,6.00
2017-11-25T07:07:53.105Z,15.63
2017-11-25T07:10:20.688Z,6.17
2017-11-25T07:12:48.365Z,6.90
2017-11-25T07:15:16.689Z,6.87
2017-11-25T07:17:44.225Z,5.87
2017-11-25T07:20:11.794Z,6.03
2017-11-25T07:22:39.325Z,6.30
2017-11-25T07:25:06.897Z,6.57
2017-11-25T07:27:35.226Z,6.40
2017-11-25T07:30:03.569Z,6.87
2017-11-25T07:32:31.905Z,7.07
2017-11-25T07:35:00.231Z,6.33
2017-11-25T07:37:27.762Z,8.80
2017-11-25T07:39:56.093Z,6.37
2017-11-25T07:42:24.429Z,6.77
2017-11-25T07:44:53.589Z,6.70
2017-11-25T07:47:22.001Z,6.13
2017-11-25T07:49:50.341Z,5.87
2017-11-25T07:52:19.653Z,6.50
2017-11-25T07:54:47.268Z,6.10
2017-11-25T07:57:14.817Z,7.00
2017-11-25T07:59:42.997Z,6.30
2017-11-25T08:02:10.529Z,6.17
2017-11-25T08:04:38.089Z,6.33
2017-11-25T08:07:05.625Z,5.73
2017-11-25T08:09:33.191Z,6.80
2017-11-25T08:12:00.721Z,6.00
2017-11-25T08:14:28.478Z,5.93
2017-11-25T08:16:56.508Z,6.50
2017-11-25T08:19:24.833Z,6.10
2017-11-25T08:21:52.380Z,6.70
2017-11-25T08:24:19.996Z,6.70
2017-11-25T08:26:47.579Z,6.63
2017-11-25T08:29:15.936Z,6.60
2017-11-25T08:31:43.477Z,5.93
2017-11-25T08:34:11.899Z,5.93
2017-11-25T08:36:39.429Z,6.27
2017-11-25T08:39:06.997Z,6.03
2017-11-25T08:41:34.729Z,5.83
2017-11-25T08:44:02.305Z,6.50
2017-11-25T08:46:29.832Z,5.77
2017-11-25T08:48:57.422Z,5.73
2017-11-25T08:51:25.718Z,5.97
2017-11-25T08:53:54.076Z,6.07
2017-11-25T08:56:22.582Z,6.70
2017-11-25T08:58:50.177Z,6.57
2017-11-25T09:01:17.733Z,6.13
2017-11-25T09:03:46.068Z,5.80
2017-11-25T09:06:13.595Z,5.30
2017-11-25T09:08:42.225Z,5.80
2017-11-25T09:11:10.694Z,5.63
2017-11-25T09:13:39.029Z,5.53
2017-11-25T09:16:06.575Z,5.57
2017-11-25T09:18:34.141Z,5.43
2017-11-25T09:21:01.665Z,5.43
2017-11-25T09:23:29.229Z,5.17
2017-11-25T09:25:57.536Z,5.40
2017-11-25T09:28:25.106Z,5.23
2017-11-25T09:30:52.646Z,5.17
2017-11-25T09:33:20.288Z,5.70
2017-11-25T09:35:50.004Z,4.90
2017-11-25T09:38:18.365Z,4.90
2017-11-25T09:40:45.898Z,5.70
2017-11-25T09:43:14.338Z,5.87
2017-11-25T09:45:41.868Z,5.53
2017-11-25T09:48:09.437Z,4.50
2017-11-25T09:50:36.961Z,4.60
2017-11-25T09:53:04.549Z,4.80
2017-11-25T09:55:32.107Z,5.10
2017-11-25T09:57:59.672Z,5.47
2017-11-25T10:00:27.207Z,5.10
2017-11-25T10:02:54.797Z,4.83
2017-11-25T10:05:22.337Z,5.13
2017-11-25T10:07:51.567Z,5.50
2017-11-25T10:10:20.304Z,4.80
2017-11-25T10:12:47.927Z,5.03
2017-11-25T10:15:15.470Z,5.50
2017-11-25T10:17:44.905Z,5.40
2017-11-25T10:20:13.197Z,4.73
2017-11-25T10:22:41.579Z,5.00
2017-11-25T10:25:11.758Z,5.00
2017-11-25T10:27:41.441Z,5.90
2017-11-25T10:30:10.685Z,9.00
2017-11-25T10:32:38.280Z,6.10
2017-11-25T10:35:06.701Z,5.83
2017-11-25T10:37:34.317Z,5.33
2017-11-25T10:40:01.841Z,4.13
2017-11-25T10:42:29.405Z,4.37
2017-11-25T10:44:57.860Z,6.33
2017-11-25T10:47:25.447Z,6.03
2017-11-25T10:49:53.597Z,4.47
2017-11-25T10:52:21.930Z,5.00
2017-11-25T10:54:50.413Z,4.47
2017-11-25T10:57:18.085Z,4.93
2017-11-25T10:59:45.620Z,4.83
2017-11-25T11:02:13.949Z,5.10
2017-11-25T11:04:41.482Z,4.60
2017-11-25T11:07:09.044Z,3.97
2017-11-25T11:09:36.614Z,4.90
2017-11-25T11:12:04.149Z,3.80
2017-11-25T11:14:31.725Z,4.00
2017-11-25T11:16:59.289Z,4.40
2017-11-25T11:19:27.278Z,4.20
2017-11-25T11:21:54.869Z,4.40
2017-11-25T11:24:22.406Z,4.00
2017-11-25T11:26:49.986Z,4.50
2017-11-25T11:29:17.570Z,4.30
2017-11-25T11:31:45.108Z,4.20
2017-11-25T11:34:13.497Z,3.73
2017-11-25T11:36:41.107Z,4.10
2017-11-25T11:39:08.636Z,3.60
2017-11-25T11:41:36.978Z,4.13
2017-11-25T11:44:05.288Z,3.97
2017-11-25T11:46:32.880Z,4.03
2017-11-25T11:49:01.120Z,4.03
2017-11-25T11:51:30.485Z,3.50
2017-11-25T11:53:58.732Z,3.80
2017-11-25T11:56:27.233Z,3.83
2017-11-25T11:58:54.765Z,4.20
2017-11-25T12:01:23.125Z,3.57
2017-11-25T12:03:50.673Z,4.20
2017-11-25T12:06:18.244Z,3.90
2017-11-25T12:08:46.541Z,3.80
2017-11-25T12:11:14.086Z,3.40
2017-11-25T12:13:42.580Z,6.03
2017-11-25T12:16:10.117Z,3.23
2017-11-25T12:18:37.698Z,3.50
2017-11-25T12:21:06.576Z,3.70
2017-11-25T12:23:34.210Z,3.00
2017-11-25T12:26:01.929Z,3.80
2017-11-25T12:28:29.489Z,3.30
2017-11-25T12:30:57.018Z,3.07
2017-11-25T12:33:24.601Z,3.50
2017-11-25T12:35:53.130Z,4.20
2017-11-25T12:38:20.737Z,3.60
2017-11-25T12:40:49.092Z,3.90
2017-11-25T12:43:16.678Z,2.90
2017-11-25T12:45:44.213Z,3.50
2017-11-25T12:48:11.782Z,4.10
2017-11-25T12:50:39.353Z,3.40
2017-11-25T12:53:06.885Z,3.43
2017-11-25T12:55:35.836Z,3.90
2017-11-25T12:58:03.992Z,3.47
2017-11-25T13:00:33.560Z,3.30
2017-11-25T13:03:01.135Z,4.13
2017-11-25T13:05:28.693Z,3.70
2017-11-25T13:07:56.263Z,3.40
2017-11-25T13:10:23.820Z,3.47
2017-11-25T13:12:52.111Z,3.73
2017-11-25T13:15:20.443Z,3.60
2017-11-25T13:17:47.993Z,3.77
2017-11-25T13:20:15.589Z,4.50
2017-11-25T13:22:43.884Z,3.87
2017-11-25T13:25:11.417Z,3.80
2017-11-25T13:27:38.981Z,4.47
2017-11-25T13:30:07.277Z,3.70
2017-11-25T13:32:34.847Z,7.73
2017-11-25T13:35:02.413Z,3.67
2017-11-25T13:37:30.713Z,3.90
2017-11-25T13:39:58.273Z,3.60
2017-11-25T13:42:26.568Z,4.23
2017-11-25T13:44:54.905Z,3.80
2017-11-25T13:47:22.441Z,4.00
2017-11-25T13:49:50.854Z,3.50
2017-11-25T13:52:18.952Z,3.50
2017-11-25T13:54:46.527Z,3.70
2017-11-25T13:57:14.050Z,3.90
2017-11-25T13:59:42.385Z,3.60
2017-11-25T14:02:09.919Z,3.80
2017-11-25T14:04:38.244Z,3.37
2017-11-25T14:07:06.517Z,3.37
2017-11-25T14:09:34.102Z,3.20
2017-11-25T14:12:01.637Z,3.80
2017-11-25T14:14:30.272Z,3.47
2017-11-25T14:16:57.799Z,3.70
2017-11-25T14:19:25.364Z,3.83
2017-11-25T14:21:52.912Z,3.50
2017-11-25T14:24:21.250Z,3.63
2017-11-25T14:26:50.181Z,3.50
2017-11-25T14:29:17.858Z,2.80
2017-11-25T14:31:45.387Z,3.40
2017-11-25T14:34:12.912Z,4.17
2017-11-25T14:36:40.482Z,3.17
2017-11-25T14:39:08.044Z,3.53
2017-11-25T14:41:35.576Z,3.90
2017-11-25T14:44:03.146Z,3.40
2017-11-25T14:46:30.673Z,3.83
2017-11-25T14:48:58.235Z,3.77
2017-11-25T14:51:25.782Z,3.60
2017-11-25T14:53:54.083Z,3.70
2017-11-25T14:56:21.623Z,3.67
2017-11-25T14:58:49.201Z,3.80
2017-11-25T15:01:16.737Z,3.33
2017-11-25T15:03:44.879Z,5.43
2017-11-25T15:06:14.528Z,3.87
2017-11-25T15:08:42.093Z,4.03
2017-11-25T15:11:09.628Z,4.37
2017-11-25T15:13:38.596Z,11.93
2017-11-25T15:16:06.124Z,3.87
2017-11-25T15:18:36.189Z,3.83
2017-11-25T15:21:03.726Z,4.03
2017-11-25T15:23:32.066Z,3.63
2017-11-25T15:25:59.607Z,3.30
2017-11-25T15:28:27.172Z,3.50
2017-11-25T15:30:55.464Z,3.67
2017-11-25T15:33:24.622Z,3.33
2017-11-25T15:35:53.084Z,3.90
2017-11-25T15:38:20.690Z,4.20
2017-11-25T15:40:48.264Z,4.23
2017-11-25T15:43:15.792Z,3.87
2017-11-25T15:45:43.352Z,3.40
2017-11-25T15:48:11.662Z,4.90
2017-11-25T15:50:39.225Z,5.00
2017-11-25T15:53:06.805Z,4.53
2017-11-25T15:55:34.344Z,2.83
2017-11-25T15:58:01.901Z,4.13
2017-11-25T16:00:29.475Z,3.33
2017-11-25T16:02:57.044Z,4.13
2017-11-25T16:05:25.340Z,3.57
2017-11-25T16:07:52.924Z,4.37
2017-11-25T16:10:20.449Z,4.37
2017-11-25T16:12:48.019Z,4.13
2017-11-25T16:15:15.557Z,3.93
2017-11-25T16:17:43.893Z,4.67
2017-11-25T16:20:12.336Z,4.27
2017-11-25T16:22:40.673Z,5.80
2017-11-25T16:25:08.217Z,6.37
2017-11-25T16:27:36.569Z,3.87
2017-11-25T16:30:04.109Z,3.43
2017-11-25T16:32:31.673Z,4.17
2017-11-25T16:34:59.199Z,3.37
2017-11-25T16:37:26.786Z,4.53
2017-11-25T16:39:55.078Z,3.80
2017-11-25T16:42:23.412Z,4.10
2017-11-25T16:44:50.940Z,4.07
2017-11-25T16:47:19.281Z,4.13
2017-11-25T16:49:46.814Z,4.20
2017-11-25T16:52:15.153Z,5.63
2017-11-25T16:54:42.682Z,4.10
2017-11-25T16:57:11.028Z,4.50
2017-11-25T16:59:38.560Z,4.53
2017-11-25T17:02:06.143Z,4.70
2017-11-25T17:04:33.668Z,4.07
2017-11-25T17:07:02.729Z,4.00
2017-11-25T17:09:30.261Z,3.83
2017-11-25T17:11:58.605Z,3.37
2017-11-25T17:14:26.985Z,4.37
2017-11-25T17:16:54.556Z,3.37
2017-11-25T17:19:23.000Z,3.90
2017-11-25T17:21:51.471Z,4.30
2017-11-25T17:24:19.003Z,3.30
2017-11-25T17:26:46.583Z,4.80
2017-11-25T17:29:14.109Z,3.70
2017-11-25T17:31:43.181Z,3.50
2017-11-25T17:34:11.592Z,4.50
2017-11-25T17:36:39.172Z,4.00
2017-11-25T17:39:06.723Z,3.60
2017-11-25T17:41:34.297Z,4.17
2017-11-25T17:44:01.824Z,4.07
2017-11-25T17:46:31.576Z,4.33
2017-11-25T17:48:59.104Z,3.90
2017-11-25T17:51:27.617Z,4.40
2017-11-25T17:53:55.905Z,3.90
2017-11-25T17:56:24.301Z,4.77
2017-11-25T17:58:51.834Z,5.20
2017-11-25T18:01:21.050Z,4.60
2017-11-25T18:03:51.337Z,4.70
2017-11-25T18:06:21.529Z,4.90
2017-11-25T18:08:49.103Z,5.30
2017-11-25T18:11:17.440Z,5.43
2017-11-25T18:13:45.743Z,5.80
2017-11-25T18:19:08.100Z,8.33
2017-11-25T18:21:35.687Z,6.00
2017-11-25T18:24:03.208Z,6.23
2017-11-25T18:26:34.300Z,5.93
2017-11-25T18:29:04.350Z,5.00
2017-11-25T18:31:31.929Z,6.27
2017-11-25T18:34:00.222Z,5.97
2017-11-25T18:36:27.982Z,5.07
2017-11-25T18:38:55.517Z,4.67
2017-11-25T18:41:24.261Z,6.50
2017-11-25T18:43:52.767Z,5.67
2017-11-25T18:46:20.328Z,6.30
2017-11-25T18:48:47.864Z,5.93
2017-11-25T18:51:15.428Z,5.40
2017-11-25T18:53:42.962Z,5.03
2017-11-25T18:56:10.529Z,4.90
2017-11-25T18:58:38.730Z,5.00
2017-11-25T19:01:06.297Z,4.90
2017-11-25T19:03:33.829Z,4.50
2017-11-25T19:06:02.179Z,5.33
2017-11-25T19:08:29.789Z,5.13
2017-11-25T19:10:57.708Z,6.73
2017-11-25T19:13:25.234Z,10.70
2017-11-25T19:15:53.575Z,7.53
2017-11-25T19:18:21.115Z,6.90
2017-11-25T19:20:49.445Z,4.40
2017-11-25T19:23:18.145Z,4.20
2017-11-25T19:25:45.713Z,4.80
2017-11-25T19:28:14.191Z,4.30
2017-11-25T19:30:41.752Z,5.00
2017-11-25T19:33:10.131Z,7.17
2017-11-25T19:35:40.155Z,6.10
2017-11-25T19:38:07.692Z,4.93
2017-11-25T19:40:35.263Z,5.37
2017-11-25T19:43:02.831Z,6.40
2017-11-25T19:45:30.388Z,5.57
2017-11-25T19:47:59.522Z,7.03
2017-11-25T19:50:27.085Z,6.00
2017-11-25T19:52:54.617Z,6.67
2017-11-25T19:55:22.949Z,5.50
2017-11-25T19:57:50.518Z,7.00
2017-11-25T20:00:18.872Z,5.33
2017-11-25T20:02:47.165Z,5.97
2017-11-25T20:05:15.544Z,5.70
2017-11-25T20:07:43.836Z,6.10
2017-11-25T20:10:12.183Z,6.80
2017-11-25T20:12:39.753Z,7.00
2017-11-25T20:15:07.340Z,7.27
2017-11-25T20:17:34.952Z,7.17
2017-11-25T20:20:02.513Z,7.47
2017-11-25T20:22:30.808Z,7.20
2017-11-25T20:24:59.137Z,6.13
2017-11-25T20:27:26.661Z,5.20
2017-11-25T20:29:55.191Z,5.83
2017-11-25T20:32:24.841Z,5.77
2017-11-25T20:34:52.406Z,5.23
2017-11-25T20:37:19.928Z,5.20
2017-11-25T20:39:47.485Z,7.50
2017-11-25T20:42:15.008Z,6.57
2017-11-25T20:44:42.569Z,6.20
2017-11-25T20:47:12.461Z,6.60
2017-11-25T20:49:40.070Z,6.77
2017-11-25T20:52:08.368Z,7.00
2017-11-25T20:54:36.761Z,6.67
2017-11-25T20:57:04.295Z,6.30
2017-11-25T20:59:31.868Z,7.27
2017-11-25T21:01:59.394Z,6.50
2017-11-25T21:04:26.963Z,6.60
2017-11-25T21:06:54.497Z,5.00
2017-11-25T21:09:22.980Z,5.20
2017-11-25T21:11:50.522Z,7.00
2017-11-25T21:14:18.086Z,7.03
2017-11-25T21:16:45.608Z,5.37
2017-11-25T21:19:13.941Z,6.10
2017-11-25T21:21:41.469Z,4.30
2017-11-25T21:24:09.091Z,5.10
2017-11-25T21:26:36.668Z,4.77
2017-11-25T21:29:04.244Z,4.50
2017-11-25T21:31:31.775Z,5.23
2017-11-25T21:34:00.134Z,4.47
2017-11-25T21:36:27.663Z,5.17
2017-11-25T21:38:55.269Z,5.43
2017-11-25T21:41:22.793Z,4.53
2017-11-25T21:43:51.117Z,5.53
2017-11-25T21:46:19.850Z,5.30
2017-11-25T21:48:47.432Z,5.53
2017-11-25T21:51:14.958Z,5.07
2017-11-25T21:53:42.529Z,5.37
2017-11-25T21:56:11.794Z,5.47
2017-11-25T21:58:39.378Z,5.40
2017-11-25T22:01:07.801Z,5.63
2017-11-25T22:03:35.386Z,5.67
2017-11-25T22:06:02.963Z,5.07
2017-11-25T22:08:30.519Z,4.87
2017-11-25T22:10:58.041Z,4.27
2017-11-25T22:13:25.607Z,5.07
2017-11-25T22:15:53.137Z,5.20
2017-11-25T22:18:21.260Z,4.47
2017-11-25T22:20:48.827Z,6.73
2017-11-25T22:23:16.388Z,4.30
2017-11-25T22:25:43.946Z,3.63
2017-11-25T22:28:11.560Z,4.00
2017-11-25T22:30:39.093Z,15.73
2017-11-25T22:33:06.661Z,4.80
2017-11-25T22:35:34.184Z,5.60
2017-11-25T22:38:01.741Z,5.17
2017-11-25T22:40:29.264Z,5.83
2017-11-25T22:42:57.595Z,5.23
2017-11-25T22:45:25.120Z,5.43
2017-11-25T22:47:52.689Z,4.33
2017-11-25T22:50:20.989Z,4.50
2017-11-25T22:52:50.109Z,4.93
2017-11-25T22:55:18.812Z,4.47
2017-11-25T22:57:46.388Z,4.93
2017-11-25T23:00:13.912Z,4.40
2017-11-25T23:02:41.477Z,4.83
2017-11-25T23:05:09.013Z,4.40
2017-11-25T23:07:36.587Z,4.67
2017-11-25T23:10:04.113Z,4.37
2017-11-25T23:12:32.214Z,4.87
2017-11-25T23:15:00.513Z,4.03
2017-11-25T23:17:28.837Z,4.93
2017-11-25T23:19:57.164Z,4.03
2017-11-25T23:22:24.730Z,3.43
2017-11-25T23:24:53.420Z,4.00
2017-11-25T23:27:20.986Z,3.83
2017-11-25T23:29:48.525Z,5.13
2017-11-25T23:32:16.093Z,3.93
2017-11-25T23:34:43.631Z,4.47
2017-11-25T23:37:11.193Z,4.63
2017-11-25T23:39:38.719Z,4.93
2017-11-25T23:42:06.287Z,4.60
2017-11-25T23:44:33.820Z,4.20
2017-11-25T23:47:01.376Z,3.73
2017-11-25T23:49:29.669Z,5.77
2017-11-25T23:51:57.237Z,4.00
2017-11-25T23:54:24.874Z,4.63
2017-11-25T23:56:53.242Z,4.03
2017-11-25T23:59:21.536Z,4.27
